sensor_id;sensor_type;location;lat;lon;timestamp;P1;durP1;ratioP1;P2;durP2;ratioP2
7031;SDS011;3557;48.880;8.328;2022-08-19T00:01:48;9.70;;;8.10;;
7031;SDS011;3557;48.880;8.328;2022-08-19T00:04:19;8.98;;;8.07;;
7031;SDS011;3557;48.880;8.328;2022-08-19T00:06:51;10.55;;;8.05;;
7031;SDS011;3557;48.880;8.328;2022-08-19T00:09:20;8.80;;;7.90;;
7031;SDS011;3557;48.880;8.328;2022-08-19T00:11:49;9.30;;;8.35;;
7031;SDS011;3557;48.880;8.328;2022-08-19T00:14:20;9.15;;;8.20;;
7031;SDS011;3557;48.880;8.328;2022-08-19T00:16:49;9.38;;;8.38;;
7031;SDS011;3557;48.880;8.328;2022-08-19T00:19:19;9.50;;;8.60;;
7031;SDS011;3557;48.880;8.328;2022-08-19T00:21:47;9.68;;;8.70;;
7031;SDS011;3557;48.880;8.328;2022-08-19T00:24:16;8.75;;;7.80;;
7031;SDS011;3557;48.880;8.328;2022-08-19T00:26:43;9.18;;;8.25;;
7031;SDS011;3557;48.880;8.328;2022-08-19T00:29:11;9.20;;;8.30;;
7031;SDS011;3557;48.880;8.328;2022-08-19T00:31:41;9.45;;;8.40;;
7031;SDS011;3557;48.880;8.328;2022-08-19T00:34:09;11.27;;;9.65;;
7031;SDS011;3557;48.880;8.328;2022-08-19T00:36:36;11.00;;;9.50;;
7031;SDS011;3557;48.880;8.328;2022-08-19T00:39:04;9.52;;;8.60;;
7031;SDS011;3557;48.880;8.328;2022-08-19T00:41:33;9.80;;;8.80;;
7031;SDS011;3557;48.880;8.328;2022-08-19T00:44:01;9.38;;;8.48;;
7031;SDS011;3557;48.880;8.328;2022-08-19T00:46:31;11.20;;;9.23;;
7031;SDS011;3557;48.880;8.328;2022-08-19T00:49:01;10.13;;;8.90;;
7031;SDS011;3557;48.880;8.328;2022-08-19T00:51:32;10.10;;;9.10;;
7031;SDS011;3557;48.880;8.328;2022-08-19T00:54:00;10.05;;;9.05;;
7031;SDS011;3557;48.880;8.328;2022-08-19T00:56:29;10.20;;;9.20;;
7031;SDS011;3557;48.880;8.328;2022-08-19T00:58:58;12.70;;;9.98;;
7031;SDS011;3557;48.880;8.328;2022-08-19T01:01:27;9.77;;;8.82;;
7031;SDS011;3557;48.880;8.328;2022-08-19T01:03:55;9.95;;;8.95;;
7031;SDS011;3557;48.880;8.328;2022-08-19T01:06:21;9.60;;;8.70;;
7031;SDS011;3557;48.880;8.328;2022-08-19T01:08:49;9.82;;;8.82;;
7031;SDS011;3557;48.880;8.328;2022-08-19T01:11:16;10.52;;;9.52;;
7031;SDS011;3557;48.880;8.328;2022-08-19T01:13:45;9.85;;;8.82;;
7031;SDS011;3557;48.880;8.328;2022-08-19T01:16:12;10.90;;;9.80;;
7031;SDS011;3557;48.880;8.328;2022-08-19T01:18:41;9.90;;;9.00;;
7031;SDS011;3557;48.880;8.328;2022-08-19T01:21:10;11.68;;;9.63;;
7031;SDS011;3557;48.880;8.328;2022-08-19T01:23:45;10.45;;;9.25;;
7031;SDS011;3557;48.880;8.328;2022-08-19T01:26:13;10.82;;;9.40;;
7031;SDS011;3557;48.880;8.328;2022-08-19T01:28:43;9.90;;;8.98;;
7031;SDS011;3557;48.880;8.328;2022-08-19T01:31:13;9.68;;;8.77;;
7031;SDS011;3557;48.880;8.328;2022-08-19T01:33:43;9.48;;;8.57;;
7031;SDS011;3557;48.880;8.328;2022-08-19T01:36:19;10.85;;;8.95;;
7031;SDS011;3557;48.880;8.328;2022-08-19T01:38:52;10.52;;;9.30;;
7031;SDS011;3557;48.880;8.328;2022-08-19T01:41:20;10.70;;;9.60;;
7031;SDS011;3557;48.880;8.328;2022-08-19T01:43:48;10.10;;;9.20;;
7031;SDS011;3557;48.880;8.328;2022-08-19T01:46:16;10.40;;;9.32;;
7031;SDS011;3557;48.880;8.328;2022-08-19T01:48:45;10.43;;;9.35;;
7031;SDS011;3557;48.880;8.328;2022-08-19T01:51:12;12.38;;;9.32;;
7031;SDS011;3557;48.880;8.328;2022-08-19T01:53:40;9.85;;;8.85;;
7031;SDS011;3557;48.880;8.328;2022-08-19T01:56:09;10.93;;;9.30;;
7031;SDS011;3557;48.880;8.328;2022-08-19T01:58:36;10.57;;;9.00;;
7031;SDS011;3557;48.880;8.328;2022-08-19T02:01:07;10.32;;;9.30;;
7031;SDS011;3557;48.880;8.328;2022-08-19T02:03:35;11.43;;;9.73;;
7031;SDS011;3557;48.880;8.328;2022-08-19T02:06:02;10.13;;;9.13;;
7031;SDS011;3557;48.880;8.328;2022-08-19T02:08:30;10.23;;;9.00;;
7031;SDS011;3557;48.880;8.328;2022-08-19T02:10:59;10.10;;;9.18;;
7031;SDS011;3557;48.880;8.328;2022-08-19T02:13:28;9.90;;;8.95;;
7031;SDS011;3557;48.880;8.328;2022-08-19T02:15:55;10.48;;;9.48;;
7031;SDS011;3557;48.880;8.328;2022-08-19T02:18:22;10.20;;;9.20;;
7031;SDS011;3557;48.880;8.328;2022-08-19T02:20:49;11.20;;;9.80;;
7031;SDS011;3557;48.880;8.328;2022-08-19T02:23:16;10.23;;;9.23;;
7031;SDS011;3557;48.880;8.328;2022-08-19T02:25:45;10.10;;;9.05;;
7031;SDS011;3557;48.880;8.328;2022-08-19T02:28:13;9.70;;;8.77;;
7031;SDS011;3557;48.880;8.328;2022-08-19T02:30:42;10.32;;;8.85;;
7031;SDS011;3557;48.880;8.328;2022-08-19T02:33:09;10.57;;;9.48;;
7031;SDS011;3557;48.880;8.328;2022-08-19T02:35:36;11.02;;;8.95;;
7031;SDS011;3557;48.880;8.328;2022-08-19T02:38:07;11.07;;;9.85;;
7031;SDS011;3557;48.880;8.328;2022-08-19T02:40:53;10.30;;;9.18;;
7031;SDS011;3557;48.880;8.328;2022-08-19T02:43:23;10.32;;;9.32;;
7031;SDS011;3557;48.880;8.328;2022-08-19T02:45:54;11.02;;;9.90;;
7031;SDS011;3557;48.880;8.328;2022-08-19T02:48:22;11.10;;;9.32;;
7031;SDS011;3557;48.880;8.328;2022-08-19T02:50:51;10.38;;;9.38;;
7031;SDS011;3557;48.880;8.328;2022-08-19T02:53:20;10.43;;;9.38;;
7031;SDS011;3557;48.880;8.328;2022-08-19T02:55:49;10.30;;;9.23;;
7031;SDS011;3557;48.880;8.328;2022-08-19T02:58:17;10.80;;;9.25;;
7031;SDS011;3557;48.880;8.328;2022-08-19T03:00:47;11.27;;;10.18;;
7031;SDS011;3557;48.880;8.328;2022-08-19T03:03:18;12.10;;;10.43;;
7031;SDS011;3557;48.880;8.328;2022-08-19T03:05:45;11.75;;;10.55;;
7031;SDS011;3557;48.880;8.328;2022-08-19T03:08:14;12.73;;;11.52;;
7031;SDS011;3557;48.880;8.328;2022-08-19T03:10:42;13.65;;;10.95;;
7031;SDS011;3557;48.880;8.328;2022-08-19T03:13:12;14.07;;;12.18;;
7031;SDS011;3557;48.880;8.328;2022-08-19T03:15:40;16.33;;;12.80;;
7031;SDS011;3557;48.880;8.328;2022-08-19T03:18:09;14.35;;;12.35;;
7031;SDS011;3557;48.880;8.328;2022-08-19T03:20:43;14.20;;;12.70;;
7031;SDS011;3557;48.880;8.328;2022-08-19T03:23:13;14.20;;;12.57;;
7031;SDS011;3557;48.880;8.328;2022-08-19T03:25:41;15.27;;;12.70;;
7031;SDS011;3557;48.880;8.328;2022-08-19T03:28:11;14.27;;;12.27;;
7031;SDS011;3557;48.880;8.328;2022-08-19T03:30:40;16.40;;;12.70;;
7031;SDS011;3557;48.880;8.328;2022-08-19T03:33:10;14.98;;;12.90;;
7031;SDS011;3557;48.880;8.328;2022-08-19T03:35:37;13.68;;;12.35;;
7031;SDS011;3557;48.880;8.328;2022-08-19T03:38:06;13.82;;;12.43;;
7031;SDS011;3557;48.880;8.328;2022-08-19T03:40:36;15.63;;;13.38;;
7031;SDS011;3557;48.880;8.328;2022-08-19T03:43:03;13.82;;;12.25;;
7031;SDS011;3557;48.880;8.328;2022-08-19T03:45:31;14.25;;;12.85;;
7031;SDS011;3557;48.880;8.328;2022-08-19T03:47:58;15.52;;;12.90;;
7031;SDS011;3557;48.880;8.328;2022-08-19T03:50:25;14.13;;;12.63;;
7031;SDS011;3557;48.880;8.328;2022-08-19T03:52:53;14.63;;;13.13;;
7031;SDS011;3557;48.880;8.328;2022-08-19T03:55:21;14.65;;;13.15;;
7031;SDS011;3557;48.880;8.328;2022-08-19T03:57:48;14.73;;;13.10;;
7031;SDS011;3557;48.880;8.328;2022-08-19T04:00:16;15.20;;;13.50;;
7031;SDS011;3557;48.880;8.328;2022-08-19T04:02:43;14.48;;;12.98;;
7031;SDS011;3557;48.880;8.328;2022-08-19T04:05:10;15.38;;;12.55;;
7031;SDS011;3557;48.880;8.328;2022-08-19T04:07:39;14.75;;;11.98;;
7031;SDS011;3557;48.880;8.328;2022-08-19T04:10:06;12.82;;;11.55;;
7031;SDS011;3557;48.880;8.328;2022-08-19T04:12:35;14.82;;;13.05;;
7031;SDS011;3557;48.880;8.328;2022-08-19T04:15:03;14.95;;;13.45;;
7031;SDS011;3557;48.880;8.328;2022-08-19T04:17:31;14.65;;;13.15;;
7031;SDS011;3557;48.880;8.328;2022-08-19T04:19:59;15.45;;;13.40;;
7031;SDS011;3557;48.880;8.328;2022-08-19T04:22:26;15.93;;;14.23;;
7031;SDS011;3557;48.880;8.328;2022-08-19T04:24:53;15.63;;;13.75;;
7031;SDS011;3557;48.880;8.328;2022-08-19T04:27:20;19.20;;;15.40;;
7031;SDS011;3557;48.880;8.328;2022-08-19T04:29:49;15.13;;;13.52;;
7031;SDS011;3557;48.880;8.328;2022-08-19T04:32:16;15.70;;;13.85;;
7031;SDS011;3557;48.880;8.328;2022-08-19T04:34:43;15.68;;;13.80;;
7031;SDS011;3557;48.880;8.328;2022-08-19T04:37:10;14.80;;;13.23;;
7031;SDS011;3557;48.880;8.328;2022-08-19T04:39:38;16.30;;;14.07;;
7031;SDS011;3557;48.880;8.328;2022-08-19T04:42:23;22.05;;;15.90;;
7031;SDS011;3557;48.880;8.328;2022-08-19T04:45:08;16.88;;;14.50;;
7031;SDS011;3557;48.880;8.328;2022-08-19T04:47:38;17.25;;;15.13;;
7031;SDS011;3557;48.880;8.328;2022-08-19T04:50:08;16.90;;;13.57;;
7031;SDS011;3557;48.880;8.328;2022-08-19T04:52:36;15.13;;;12.90;;
7031;SDS011;3557;48.880;8.328;2022-08-19T04:55:07;14.85;;;13.27;;
7031;SDS011;3557;48.880;8.328;2022-08-19T04:57:35;16.92;;;14.88;;
7031;SDS011;3557;48.880;8.328;2022-08-19T05:00:04;17.48;;;15.13;;
7031;SDS011;3557;48.880;8.328;2022-08-19T05:02:35;15.40;;;13.70;;
7031;SDS011;3557;48.880;8.328;2022-08-19T05:05:02;15.70;;;13.90;;
7031;SDS011;3557;48.880;8.328;2022-08-19T05:07:31;17.63;;;14.68;;
7031;SDS011;3557;48.880;8.328;2022-08-19T05:09:58;15.23;;;13.63;;
7031;SDS011;3557;48.880;8.328;2022-08-19T05:12:25;16.20;;;14.35;;
7031;SDS011;3557;48.880;8.328;2022-08-19T05:14:53;15.60;;;13.55;;
7031;SDS011;3557;48.880;8.328;2022-08-19T05:17:23;15.82;;;14.13;;
7031;SDS011;3557;48.880;8.328;2022-08-19T05:19:50;16.30;;;14.60;;
7031;SDS011;3557;48.880;8.328;2022-08-19T05:22:35;17.30;;;13.88;;
7031;SDS011;3557;48.880;8.328;2022-08-19T05:25:03;16.27;;;14.52;;
7031;SDS011;3557;48.880;8.328;2022-08-19T05:27:33;16.50;;;14.40;;
7031;SDS011;3557;48.880;8.328;2022-08-19T05:30:00;16.58;;;14.82;;
7031;SDS011;3557;48.880;8.328;2022-08-19T05:32:29;17.75;;;14.45;;
7031;SDS011;3557;48.880;8.328;2022-08-19T05:34:56;15.73;;;13.98;;
7031;SDS011;3557;48.880;8.328;2022-08-19T05:37:24;15.23;;;13.68;;
7031;SDS011;3557;48.880;8.328;2022-08-19T05:39:53;15.48;;;13.75;;
7031;SDS011;3557;48.880;8.328;2022-08-19T05:42:20;16.27;;;14.20;;
7031;SDS011;3557;48.880;8.328;2022-08-19T05:44:48;16.42;;;13.85;;
7031;SDS011;3557;48.880;8.328;2022-08-19T05:47:16;17.58;;;14.48;;
7031;SDS011;3557;48.880;8.328;2022-08-19T05:49:46;16.27;;;14.02;;
7031;SDS011;3557;48.880;8.328;2022-08-19T05:52:15;15.80;;;13.85;;
7031;SDS011;3557;48.880;8.328;2022-08-19T05:54:42;17.45;;;14.55;;
7031;SDS011;3557;48.880;8.328;2022-08-19T05:57:10;17.00;;;14.55;;
7031;SDS011;3557;48.880;8.328;2022-08-19T05:59:37;15.27;;;13.52;;
7031;SDS011;3557;48.880;8.328;2022-08-19T06:02:04;16.50;;;14.10;;
7031;SDS011;3557;48.880;8.328;2022-08-19T06:04:33;17.60;;;14.75;;
7031;SDS011;3557;48.880;8.328;2022-08-19T06:07:02;17.05;;;13.63;;
7031;SDS011;3557;48.880;8.328;2022-08-19T06:09:29;17.65;;;14.77;;
7031;SDS011;3557;48.880;8.328;2022-08-19T06:11:57;17.70;;;14.27;;
7031;SDS011;3557;48.880;8.328;2022-08-19T06:14:28;19.38;;;14.27;;
7031;SDS011;3557;48.880;8.328;2022-08-19T06:16:59;15.65;;;13.48;;
7031;SDS011;3557;48.880;8.328;2022-08-19T06:19:27;19.45;;;15.65;;
7031;SDS011;3557;48.880;8.328;2022-08-19T06:21:56;15.18;;;13.07;;
7031;SDS011;3557;48.880;8.328;2022-08-19T06:24:26;16.48;;;13.80;;
7031;SDS011;3557;48.880;8.328;2022-08-19T06:26:55;15.57;;;13.43;;
7031;SDS011;3557;48.880;8.328;2022-08-19T06:29:24;17.80;;;13.32;;
7031;SDS011;3557;48.880;8.328;2022-08-19T06:31:53;16.42;;;14.02;;
7031;SDS011;3557;48.880;8.328;2022-08-19T06:34:22;18.17;;;13.57;;
7031;SDS011;3557;48.880;8.328;2022-08-19T06:36:51;15.85;;;13.57;;
7031;SDS011;3557;48.880;8.328;2022-08-19T06:39:20;15.10;;;13.52;;
7031;SDS011;3557;48.880;8.328;2022-08-19T06:41:51;14.77;;;13.18;;
7031;SDS011;3557;48.880;8.328;2022-08-19T06:44:22;16.55;;;13.27;;
7031;SDS011;3557;48.880;8.328;2022-08-19T06:46:51;16.85;;;13.23;;
7031;SDS011;3557;48.880;8.328;2022-08-19T06:49:19;15.05;;;13.48;;
7031;SDS011;3557;48.880;8.328;2022-08-19T06:51:46;15.45;;;13.00;;
7031;SDS011;3557;48.880;8.328;2022-08-19T06:54:15;16.58;;;14.10;;
7031;SDS011;3557;48.880;8.328;2022-08-19T06:56:43;16.20;;;13.23;;
7031;SDS011;3557;48.880;8.328;2022-08-19T06:59:12;15.85;;;13.10;;
7031;SDS011;3557;48.880;8.328;2022-08-19T07:01:43;15.88;;;14.23;;
7031;SDS011;3557;48.880;8.328;2022-08-19T07:04:13;16.92;;;13.95;;
7031;SDS011;3557;48.880;8.328;2022-08-19T07:06:42;14.30;;;12.57;;
7031;SDS011;3557;48.880;8.328;2022-08-19T07:09:11;16.08;;;13.75;;
7031;SDS011;3557;48.880;8.328;2022-08-19T07:11:43;17.30;;;13.75;;
7031;SDS011;3557;48.880;8.328;2022-08-19T07:14:13;16.75;;;13.88;;
7031;SDS011;3557;48.880;8.328;2022-08-19T07:16:43;16.30;;;13.77;;
7031;SDS011;3557;48.880;8.328;2022-08-19T07:19:11;17.73;;;13.75;;
7031;SDS011;3557;48.880;8.328;2022-08-19T07:21:39;15.23;;;12.73;;
7031;SDS011;3557;48.880;8.328;2022-08-19T07:24:07;14.77;;;13.00;;
7031;SDS011;3557;48.880;8.328;2022-08-19T07:26:37;15.15;;;13.55;;
7031;SDS011;3557;48.880;8.328;2022-08-19T07:29:07;17.85;;;14.23;;
7031;SDS011;3557;48.880;8.328;2022-08-19T07:31:36;16.83;;;13.07;;
7031;SDS011;3557;48.880;8.328;2022-08-19T07:34:04;16.35;;;13.57;;
7031;SDS011;3557;48.880;8.328;2022-08-19T07:36:33;15.57;;;13.30;;
7031;SDS011;3557;48.880;8.328;2022-08-19T07:39:04;14.32;;;12.05;;
7031;SDS011;3557;48.880;8.328;2022-08-19T07:41:36;13.90;;;12.45;;
7031;SDS011;3557;48.880;8.328;2022-08-19T07:44:04;14.93;;;12.52;;
7031;SDS011;3557;48.880;8.328;2022-08-19T07:46:33;14.13;;;12.73;;
7031;SDS011;3557;48.880;8.328;2022-08-19T07:49:05;14.02;;;12.18;;
7031;SDS011;3557;48.880;8.328;2022-08-19T07:51:44;15.48;;;12.40;;
7031;SDS011;3557;48.880;8.328;2022-08-19T07:54:12;14.85;;;12.90;;
7031;SDS011;3557;48.880;8.328;2022-08-19T07:56:40;13.35;;;11.95;;
7031;SDS011;3557;48.880;8.328;2022-08-19T07:59:07;13.95;;;12.23;;
7031;SDS011;3557;48.880;8.328;2022-08-19T08:01:35;15.57;;;12.60;;
7031;SDS011;3557;48.880;8.328;2022-08-19T08:04:05;17.55;;;12.13;;
7031;SDS011;3557;48.880;8.328;2022-08-19T08:06:51;14.93;;;12.23;;
7031;SDS011;3557;48.880;8.328;2022-08-19T08:09:36;12.43;;;11.13;;
7031;SDS011;3557;48.880;8.328;2022-08-19T08:12:06;13.95;;;11.50;;
7031;SDS011;3557;48.880;8.328;2022-08-19T08:14:39;12.38;;;11.07;;
7031;SDS011;3557;48.880;8.328;2022-08-19T08:17:10;15.00;;;12.07;;
7031;SDS011;3557;48.880;8.328;2022-08-19T08:19:40;12.98;;;11.57;;
7031;SDS011;3557;48.880;8.328;2022-08-19T08:22:08;13.02;;;10.27;;
7031;SDS011;3557;48.880;8.328;2022-08-19T08:25:00;12.88;;;11.55;;
7031;SDS011;3557;48.880;8.328;2022-08-19T08:27:29;13.05;;;10.05;;
7031;SDS011;3557;48.880;8.328;2022-08-19T08:29:56;11.77;;;10.25;;
7031;SDS011;3557;48.880;8.328;2022-08-19T08:32:24;12.38;;;10.38;;
7031;SDS011;3557;48.880;8.328;2022-08-19T08:34:52;13.00;;;10.65;;
7031;SDS011;3557;48.880;8.328;2022-08-19T08:37:19;10.57;;;9.50;;
7031;SDS011;3557;48.880;8.328;2022-08-19T08:39:47;11.20;;;9.95;;
7031;SDS011;3557;48.880;8.328;2022-08-19T08:42:16;9.57;;;8.60;;
7031;SDS011;3557;48.880;8.328;2022-08-19T08:44:52;9.43;;;8.43;;
7031;SDS011;3557;48.880;8.328;2022-08-19T08:47:26;13.98;;;7.85;;
7031;SDS011;3557;48.880;8.328;2022-08-19T08:50:00;12.02;;;8.50;;
7031;SDS011;3557;48.880;8.328;2022-08-19T08:52:32;9.82;;;8.40;;
7031;SDS011;3557;48.880;8.328;2022-08-19T08:55:03;8.55;;;7.75;;
7031;SDS011;3557;48.880;8.328;2022-08-19T08:57:37;11.80;;;8.38;;
7031;SDS011;3557;48.880;8.328;2022-08-19T09:00:11;8.80;;;7.90;;
7031;SDS011;3557;48.880;8.328;2022-08-19T09:02:47;9.05;;;8.15;;
7031;SDS011;3557;48.880;8.328;2022-08-19T09:05:14;8.13;;;7.32;;
7031;SDS011;3557;48.880;8.328;2022-08-19T09:07:42;9.32;;;7.95;;
7031;SDS011;3557;48.880;8.328;2022-08-19T09:10:17;9.85;;;7.43;;
7031;SDS011;3557;48.880;8.328;2022-08-19T09:12:52;9.20;;;8.30;;
7031;SDS011;3557;48.880;8.328;2022-08-19T09:15:28;7.78;;;6.78;;
7031;SDS011;3557;48.880;8.328;2022-08-19T09:18:02;8.32;;;7.10;;
7031;SDS011;3557;48.880;8.328;2022-08-19T09:20:31;8.60;;;7.60;;
7031;SDS011;3557;48.880;8.328;2022-08-19T09:22:58;8.32;;;6.93;;
7031;SDS011;3557;48.880;8.328;2022-08-19T09:25:26;8.82;;;7.28;;
7031;SDS011;3557;48.880;8.328;2022-08-19T09:27:53;9.27;;;7.80;;
7031;SDS011;3557;48.880;8.328;2022-08-19T09:30:22;8.55;;;7.00;;
7031;SDS011;3557;48.880;8.328;2022-08-19T09:32:52;10.23;;;7.15;;
7031;SDS011;3557;48.880;8.328;2022-08-19T09:35:22;9.48;;;6.72;;
7031;SDS011;3557;48.880;8.328;2022-08-19T09:37:52;9.00;;;6.38;;
7031;SDS011;3557;48.880;8.328;2022-08-19T09:40:19;8.15;;;6.20;;
7031;SDS011;3557;48.880;8.328;2022-08-19T09:42:47;6.60;;;5.90;;
7031;SDS011;3557;48.880;8.328;2022-08-19T09:45:14;6.10;;;5.45;;
7031;SDS011;3557;48.880;8.328;2022-08-19T09:47:43;6.15;;;5.38;;
7031;SDS011;3557;48.880;8.328;2022-08-19T09:50:11;5.20;;;4.72;;
7031;SDS011;3557;48.880;8.328;2022-08-19T09:52:40;7.00;;;5.43;;
7031;SDS011;3557;48.880;8.328;2022-08-19T09:55:08;6.05;;;5.45;;
7031;SDS011;3557;48.880;8.328;2022-08-19T09:57:37;5.53;;;4.95;;
7031;SDS011;3557;48.880;8.328;2022-08-19T10:00:05;6.15;;;5.55;;
7031;SDS011;3557;48.880;8.328;2022-08-19T10:02:35;7.13;;;5.00;;
7031;SDS011;3557;48.880;8.328;2022-08-19T10:05:02;7.15;;;5.22;;
7031;SDS011;3557;48.880;8.328;2022-08-19T10:07:49;5.78;;;5.05;;
7031;SDS011;3557;48.880;8.328;2022-08-19T10:10:17;6.25;;;5.10;;
7031;SDS011;3557;48.880;8.328;2022-08-19T10:12:44;5.93;;;4.65;;
7031;SDS011;3557;48.880;8.328;2022-08-19T10:15:12;4.97;;;4.30;;
7031;SDS011;3557;48.880;8.328;2022-08-19T10:17:40;5.85;;;4.72;;
7031;SDS011;3557;48.880;8.328;2022-08-19T10:20:07;9.18;;;5.13;;
7031;SDS011;3557;48.880;8.328;2022-08-19T10:22:35;5.43;;;4.80;;
7031;SDS011;3557;48.880;8.328;2022-08-19T10:25:05;7.00;;;4.07;;
7031;SDS011;3557;48.880;8.328;2022-08-19T10:27:33;4.85;;;4.45;;
7031;SDS011;3557;48.880;8.328;2022-08-19T10:30:00;5.72;;;4.10;;
7031;SDS011;3557;48.880;8.328;2022-08-19T10:32:27;5.18;;;4.60;;
7031;SDS011;3557;48.880;8.328;2022-08-19T10:34:55;5.95;;;4.97;;
7031;SDS011;3557;48.880;8.328;2022-08-19T10:37:22;5.20;;;4.35;;
7031;SDS011;3557;48.880;8.328;2022-08-19T10:39:49;5.57;;;4.55;;
7031;SDS011;3557;48.880;8.328;2022-08-19T10:42:18;5.72;;;4.97;;
7031;SDS011;3557;48.880;8.328;2022-08-19T10:44:46;6.85;;;5.03;;
7031;SDS011;3557;48.880;8.328;2022-08-19T10:47:13;5.97;;;4.93;;
7031;SDS011;3557;48.880;8.328;2022-08-19T10:49:40;5.88;;;4.78;;
7031;SDS011;3557;48.880;8.328;2022-08-19T10:52:25;5.10;;;4.60;;
7031;SDS011;3557;48.880;8.328;2022-08-19T10:55:03;5.35;;;4.45;;
7031;SDS011;3557;48.880;8.328;2022-08-19T10:57:51;6.20;;;4.85;;
7031;SDS011;3557;48.880;8.328;2022-08-19T11:00:18;5.22;;;4.72;;
7031;SDS011;3557;48.880;8.328;2022-08-19T11:02:46;6.93;;;4.82;;
7031;SDS011;3557;48.880;8.328;2022-08-19T11:05:13;5.35;;;4.85;;
7031;SDS011;3557;48.880;8.328;2022-08-19T11:07:42;5.53;;;4.60;;
7031;SDS011;3557;48.880;8.328;2022-08-19T11:10:11;5.20;;;4.70;;
7031;SDS011;3557;48.880;8.328;2022-08-19T11:12:40;6.13;;;5.10;;
7031;SDS011;3557;48.880;8.328;2022-08-19T11:15:09;5.10;;;4.63;;
7031;SDS011;3557;48.880;8.328;2022-08-19T11:17:37;5.20;;;4.70;;
7031;SDS011;3557;48.880;8.328;2022-08-19T11:20:06;4.75;;;4.32;;
7031;SDS011;3557;48.880;8.328;2022-08-19T11:22:35;4.78;;;4.38;;
7031;SDS011;3557;48.880;8.328;2022-08-19T11:25:02;5.95;;;5.05;;
7031;SDS011;3557;48.880;8.328;2022-08-19T11:27:30;5.50;;;4.95;;
7031;SDS011;3557;48.880;8.328;2022-08-19T11:29:57;6.22;;;5.55;;
7031;SDS011;3557;48.880;8.328;2022-08-19T11:32:26;6.75;;;5.65;;
7031;SDS011;3557;48.880;8.328;2022-08-19T11:34:53;6.07;;;5.47;;
7031;SDS011;3557;48.880;8.328;2022-08-19T11:37:20;7.93;;;5.95;;
7031;SDS011;3557;48.880;8.328;2022-08-19T11:39:47;6.60;;;5.28;;
7031;SDS011;3557;48.880;8.328;2022-08-19T11:42:14;6.13;;;5.53;;
7031;SDS011;3557;48.880;8.328;2022-08-19T11:44:59;6.10;;;5.45;;
7031;SDS011;3557;48.880;8.328;2022-08-19T11:47:29;5.88;;;5.20;;
7031;SDS011;3557;48.880;8.328;2022-08-19T11:49:56;8.30;;;5.78;;
7031;SDS011;3557;48.880;8.328;2022-08-19T11:52:23;7.47;;;5.18;;
7031;SDS011;3557;48.880;8.328;2022-08-19T11:54:50;5.80;;;5.30;;
7031;SDS011;3557;48.880;8.328;2022-08-19T11:57:17;6.03;;;5.53;;
7031;SDS011;3557;48.880;8.328;2022-08-19T11:59:47;6.85;;;5.70;;
7031;SDS011;3557;48.880;8.328;2022-08-19T12:02:15;6.30;;;5.20;;
7031;SDS011;3557;48.880;8.328;2022-08-19T12:04:45;7.32;;;5.93;;
7031;SDS011;3557;48.880;8.328;2022-08-19T12:07:12;6.40;;;5.70;;
7031;SDS011;3557;48.880;8.328;2022-08-19T12:09:39;6.20;;;5.70;;
7031;SDS011;3557;48.880;8.328;2022-08-19T12:12:08;6.65;;;6.05;;
7031;SDS011;3557;48.880;8.328;2022-08-19T12:14:35;6.13;;;5.53;;
7031;SDS011;3557;48.880;8.328;2022-08-19T12:17:02;6.40;;;5.80;;
7031;SDS011;3557;48.880;8.328;2022-08-19T12:19:32;6.43;;;5.82;;
7031;SDS011;3557;48.880;8.328;2022-08-19T12:22:01;5.88;;;5.18;;
7031;SDS011;3557;48.880;8.328;2022-08-19T12:24:30;6.72;;;5.50;;
7031;SDS011;3557;48.880;8.328;2022-08-19T12:26:57;5.85;;;5.28;;
7031;SDS011;3557;48.880;8.328;2022-08-19T12:29:26;6.25;;;5.65;;
7031;SDS011;3557;48.880;8.328;2022-08-19T12:31:55;7.25;;;6.38;;
7031;SDS011;3557;48.880;8.328;2022-08-19T12:34:26;7.32;;;6.43;;
7031;SDS011;3557;48.880;8.328;2022-08-19T12:36:56;6.65;;;6.10;;
7031;SDS011;3557;48.880;8.328;2022-08-19T12:39:25;7.28;;;6.53;;
7031;SDS011;3557;48.880;8.328;2022-08-19T12:41:52;7.30;;;6.60;;
7031;SDS011;3557;48.880;8.328;2022-08-19T12:44:19;7.47;;;6.78;;
7031;SDS011;3557;48.880;8.328;2022-08-19T12:46:47;7.15;;;6.45;;
7031;SDS011;3557;48.880;8.328;2022-08-19T12:49:14;7.43;;;6.72;;
7031;SDS011;3557;48.880;8.328;2022-08-19T12:51:41;7.90;;;6.97;;
7031;SDS011;3557;48.880;8.328;2022-08-19T12:54:09;7.45;;;6.82;;
7031;SDS011;3557;48.880;8.328;2022-08-19T12:56:37;8.07;;;6.65;;
7031;SDS011;3557;48.880;8.328;2022-08-19T12:59:05;7.80;;;6.43;;
7031;SDS011;3557;48.880;8.328;2022-08-19T13:01:33;7.43;;;6.70;;
7031;SDS011;3557;48.880;8.328;2022-08-19T13:04:00;10.77;;;7.18;;
7031;SDS011;3557;48.880;8.328;2022-08-19T13:06:28;7.20;;;6.43;;
7031;SDS011;3557;48.880;8.328;2022-08-19T13:08:55;6.88;;;6.20;;
7031;SDS011;3557;48.880;8.328;2022-08-19T13:11:23;6.32;;;5.80;;
7031;SDS011;3557;48.880;8.328;2022-08-19T13:13:52;6.03;;;5.40;;
7031;SDS011;3557;48.880;8.328;2022-08-19T13:16:20;6.22;;;5.40;;
7031;SDS011;3557;48.880;8.328;2022-08-19T13:18:48;5.47;;;4.97;;
7031;SDS011;3557;48.880;8.328;2022-08-19T13:21:17;5.05;;;4.55;;
7031;SDS011;3557;48.880;8.328;2022-08-19T13:23:46;4.50;;;4.10;;
7031;SDS011;3557;48.880;8.328;2022-08-19T13:26:13;10.95;;;4.95;;
7031;SDS011;3557;48.880;8.328;2022-08-19T13:28:41;4.55;;;4.15;;
7031;SDS011;3557;48.880;8.328;2022-08-19T13:31:29;4.18;;;3.80;;
7031;SDS011;3557;48.880;8.328;2022-08-19T13:34:16;3.88;;;3.40;;
7031;SDS011;3557;48.880;8.328;2022-08-19T13:36:46;4.18;;;3.13;;
7031;SDS011;3557;48.880;8.328;2022-08-19T13:39:13;3.30;;;3.00;;
7031;SDS011;3557;48.880;8.328;2022-08-19T13:41:42;3.40;;;3.00;;
7031;SDS011;3557;48.880;8.328;2022-08-19T13:44:13;3.72;;;2.72;;
7031;SDS011;3557;48.880;8.328;2022-08-19T13:46:42;4.03;;;3.50;;
7031;SDS011;3557;48.880;8.328;2022-08-19T13:49:10;4.47;;;3.10;;
7031;SDS011;3557;48.880;8.328;2022-08-19T13:51:40;3.58;;;3.28;;
7031;SDS011;3557;48.880;8.328;2022-08-19T13:54:08;3.45;;;3.15;;
7031;SDS011;3557;48.880;8.328;2022-08-19T13:56:39;3.70;;;3.38;;
7031;SDS011;3557;48.880;8.328;2022-08-19T13:59:09;3.85;;;3.45;;
7031;SDS011;3557;48.880;8.328;2022-08-19T14:01:36;3.70;;;3.40;;
7031;SDS011;3557;48.880;8.328;2022-08-19T14:04:05;5.70;;;3.90;;
7031;SDS011;3557;48.880;8.328;2022-08-19T14:06:32;4.13;;;3.70;;
7031;SDS011;3557;48.880;8.328;2022-08-19T14:08:59;4.22;;;3.42;;
7031;SDS011;3557;48.880;8.328;2022-08-19T14:11:27;3.80;;;3.50;;
7031;SDS011;3557;48.880;8.328;2022-08-19T14:13:54;4.40;;;4.00;;
7031;SDS011;3557;48.880;8.328;2022-08-19T14:16:22;4.30;;;3.58;;
7031;SDS011;3557;48.880;8.328;2022-08-19T14:18:49;3.65;;;3.10;;
7031;SDS011;3557;48.880;8.328;2022-08-19T14:21:20;4.55;;;3.60;;
7031;SDS011;3557;48.880;8.328;2022-08-19T14:23:50;4.60;;;3.58;;
7031;SDS011;3557;48.880;8.328;2022-08-19T14:26:17;5.05;;;3.80;;
7031;SDS011;3557;48.880;8.328;2022-08-19T14:28:46;4.10;;;3.70;;
7031;SDS011;3557;48.880;8.328;2022-08-19T14:31:14;4.13;;;3.60;;
7031;SDS011;3557;48.880;8.328;2022-08-19T14:33:44;4.93;;;3.90;;
7031;SDS011;3557;48.880;8.328;2022-08-19T14:36:12;5.10;;;3.60;;
7031;SDS011;3557;48.880;8.328;2022-08-19T14:38:41;4.97;;;4.18;;
7031;SDS011;3557;48.880;8.328;2022-08-19T14:41:09;4.47;;;4.07;;
7031;SDS011;3557;48.880;8.328;2022-08-19T14:43:42;3.92;;;3.60;;
7031;SDS011;3557;48.880;8.328;2022-08-19T14:46:11;5.03;;;3.92;;
7031;SDS011;3557;48.880;8.328;2022-08-19T14:48:40;3.83;;;3.53;;
7031;SDS011;3557;48.880;8.328;2022-08-19T14:51:08;4.35;;;3.95;;
7031;SDS011;3557;48.880;8.328;2022-08-19T14:53:35;4.22;;;3.83;;
7031;SDS011;3557;48.880;8.328;2022-08-19T14:56:08;7.65;;;4.22;;
7031;SDS011;3557;48.880;8.328;2022-08-19T14:58:35;4.30;;;3.90;;
7031;SDS011;3557;48.880;8.328;2022-08-19T15:01:03;4.40;;;4.00;;
7031;SDS011;3557;48.880;8.328;2022-08-19T15:03:30;4.32;;;3.90;;
7031;SDS011;3557;48.880;8.328;2022-08-19T15:05:58;4.10;;;3.80;;
7031;SDS011;3557;48.880;8.328;2022-08-19T15:08:27;5.55;;;4.00;;
7031;SDS011;3557;48.880;8.328;2022-08-19T15:10:56;5.03;;;3.72;;
7031;SDS011;3557;48.880;8.328;2022-08-19T15:13:27;5.18;;;3.75;;
7031;SDS011;3557;48.880;8.328;2022-08-19T15:15:55;4.40;;;4.00;;